Time;durP1;ratioP1;P1;durP2;ratioP2;P2;SDS_P1;SDS_P2;PMS_P1;PMS_P2;Temp;Humidity;BMP_temperature;BMP_pressure;BME280_temperature;BME280_humidity;BME280_pressure;Samples;Min_cycle;Max_cycle;Signal;HPM_P1;HPM_P2
2024/04/07 00:02:22;;;;;;;20.40;11.60;;;;;;;10.26;90.64;101443.49;107516;1251;100532;-63
2024/04/07 00:04:50;;;;;;;20.70;12.00;;;;;;;10.23;91.10;101451.77;107591;1251;100510;-63
2024/04/07 00:07:18;;;;;;;17.10;11.90;;;;;;;10.20;91.46;101452.15;107520;1251;114628;-63
2024/04/07 00:09:50;;;;;;;19.60;11.40;;;;;;;10.19;90.77;101458.33;107530;1251;108410;-63
2024/04/07 00:12:18;;;;;;;17.30;12.00;;;;;;;10.21;91.14;101459.30;107626;1251;108993;-63
2024/04/07 00:14:47;;;;;;;17.30;11.60;;;;;;;10.22;90.62;101461.37;107538;1251;100590;-62
2024/04/07 00:17:14;;;;;;;20.40;13.10;;;;;;;10.26;90.48;101463.02;107507;1251;100395;-62
2024/04/07 00:19:46;;;;;;;19.30;11.70;;;;;;;10.31;90.38;101462.64;107576;1251;113991;-62
2024/04/07 00:22:14;;;;;;;17.30;11.30;;;;;;;10.37;90.13;101465.40;107554;1254;107395;-63
2024/04/07 00:24:44;;;;;;;19.00;11.50;;;;;;;10.42;90.10;101465.27;107559;1251;107853;-62
2024/04/07 00:27:11;;;;;;;17.50;12.20;;;;;;;10.45;89.88;101472.17;107528;1251;100526;-62
2024/04/07 00:29:40;;;;;;;23.80;13.20;;;;;;;10.47;89.91;101474.15;107569;1251;100541;-63
2024/04/07 00:32:08;;;;;;;18.20;11.60;;;;;;;10.50;90.02;101473.95;107615;1256;114357;-62
2024/04/07 00:34:36;;;;;;;20.50;10.80;;;;;;;10.50;89.73;101477.69;107678;1251;109175;-63
2024/04/07 00:37:05;;;;;;;21.20;10.70;;;;;;;10.50;90.10;101478.98;107572;1252;108252;-63
2024/04/07 00:39:33;;;;;;;22.90;11.50;;;;;;;10.46;89.88;101478.16;107571;1251;100535;-63
2024/04/07 00:42:01;;;;;;;17.20;11.10;;;;;;;10.43;89.74;101475.36;107563;1251;101057;-62
2024/04/07 00:44:29;;;;;;;18.70;10.50;;;;;;;10.40;89.99;101482.27;107572;1251;114078;-62
2024/04/07 00:46:57;;;;;;;16.60;10.60;;;;;;;10.36;89.82;101480.91;107551;1251;107504;-63
2024/04/07 00:49:26;;;;;;;19.80;11.60;;;;;;;10.35;89.62;101481.69;107478;1251;108323;-63
2024/04/07 00:51:54;;;;;;;20.70;11.40;;;;;;;10.35;89.99;101480.63;107661;1251;100545;-63
2024/04/07 00:54:24;;;;;;;19.00;12.00;;;;;;;10.33;89.77;101482.34;107548;1251;100491;-63
2024/04/07 00:56:52;;;;;;;19.80;13.50;;;;;;;10.31;89.60;101493.80;107548;1251;114502;-63
2024/04/07 00:59:21;;;;;;;26.00;12.30;;;;;;;10.29;89.71;101495.55;107564;1251;108525;-63
2024/04/07 01:01:49;;;;;;;23.80;13.00;;;;;;;10.29;89.87;101496.83;107551;1250;108996;-63
2024/04/07 01:04:17;;;;;;;19.40;13.60;;;;;;;10.29;89.56;101499.31;107575;1253;100664;-63
2024/04/07 01:06:46;;;;;;;19.20;13.20;;;;;;;10.32;89.55;101497.36;107481;1251;102310;-63
2024/04/07 01:09:16;;;;;;;19.40;12.50;;;;;;;10.35;89.57;101494.94;107485;1251;114922;-61
2024/04/07 01:11:44;;;;;;;20.60;12.10;;;;;;;10.39;89.69;101496.30;107481;1254;107205;-62
2024/04/07 01:14:14;;;;;;;20.90;12.60;;;;;;;10.41;89.98;101493.83;107478;1254;108358;-63
2024/04/07 01:16:42;;;;;;;20.20;13.20;;;;;;;10.43;89.53;101492.60;107492;1254;100561;-62
2024/04/07 01:19:10;;;;;;;22.40;12.60;;;;;;;10.43;89.26;101491.35;107647;1254;101529;-63
2024/04/07 01:21:38;;;;;;;18.80;12.90;;;;;;;10.43;89.13;101494.04;107579;1251;114448;-62
2024/04/07 01:24:07;;;;;;;18.30;12.30;;;;;;;10.41;88.75;101489.48;107484;1251;108646;-61
2024/04/07 01:26:35;;;;;;;20.80;11.80;;;;;;;10.41;88.62;101489.14;107546;1251;108603;-63
2024/04/07 01:29:04;;;;;;;21.20;12.20;;;;;;;10.42;88.50;101486.77;107452;1251;100648;-62
2024/04/07 01:31:32;;;;;;;28.00;13.00;;;;;;;10.44;88.55;101485.34;107562;1250;100404;-62
2024/04/07 01:34:00;;;;;;;18.60;12.60;;;;;;;10.46;88.53;101484.29;107577;1251;114821;-63
2024/04/07 01:36:28;;;;;;;16.00;11.70;;;;;;;10.47;88.55;101492.66;107583;1250;108400;-62
2024/04/07 01:38:56;;;;;;;15.90;10.40;;;;;;;10.48;88.54;101497.91;107526;1251;108310;-63
2024/04/07 01:41:24;;;;;;;20.40;11.10;;;;;;;10.49;88.17;101489.08;107589;1253;101247;-63
2024/04/07 01:43:53;;;;;;;20.80;11.90;;;;;;;10.51;88.13;101486.05;107501;1251;100421;-62
2024/04/07 01:46:22;;;;;;;19.10;10.00;;;;;;;10.52;88.03;101483.70;107544;1251;114443;-62
2024/04/07 01:48:50;;;;;;;18.60;10.70;;;;;;;10.52;87.68;101486.71;107542;1251;109595;-63
2024/04/07 01:51:18;;;;;;;16.00;10.40;;;;;;;10.53;87.72;101486.84;107630;1251;108565;-62
2024/04/07 01:53:46;;;;;;;18.20;10.20;;;;;;;10.54;87.63;101490.33;107504;1251;100548;-63
2024/04/07 01:56:14;;;;;;;15.00;9.30;;;;;;;10.55;87.56;101492.95;107560;1251;101131;-62
2024/04/07 01:58:43;;;;;;;15.80;10.10;;;;;;;10.53;87.22;101496.13;107541;1251;114376;-62
2024/04/07 02:01:11;;;;;;;18.90;10.00;;;;;;;10.52;87.16;101500.50;107459;1253;108345;-62
2024/04/07 02:03:39;;;;;;;15.50;9.60;;;;;;;10.52;87.01;101505.88;107496;1251;107407;-62
2024/04/07 02:06:07;;;;;;;15.40;9.00;;;;;;;10.53;87.08;101502.26;107513;1250;100711;-63
2024/04/07 02:08:35;;;;;;;14.50;9.30;;;;;;;10.53;87.07;101502.59;107581;1251;101125;-62
2024/04/07 02:11:04;;;;;;;21.10;10.20;;;;;;;10.53;87.01;101502.41;107513;1251;114354;-62
2024/04/07 02:13:32;;;;;;;12.10;9.30;;;;;;;10.53;86.98;101505.25;107536;1251;108927;-61
2024/04/07 02:16:00;;;;;;;19.90;13.00;;;;;;;10.54;86.82;101512.42;107522;1251;107814;-62
2024/04/07 02:18:29;;;;;;;19.80;13.90;;;;;;;10.52;86.90;101513.45;107508;1251;100547;-62
2024/04/07 02:20:57;;;;;;;18.70;12.30;;;;;;;10.52;87.16;101519.53;107563;1251;102234;-63
2024/04/07 02:23:25;;;;;;;20.80;14.40;;;;;;;10.52;86.94;101524.54;107545;1250;114382;-63
2024/04/07 02:25:53;;;;;;;17.80;13.60;;;;;;;10.51;86.82;101527.33;107581;1253;107324;-63
2024/04/07 02:28:21;;;;;;;22.70;12.70;;;;;;;10.50;86.78;101530.61;107494;1253;107668;-63
2024/04/07 02:30:50;;;;;;;19.10;14.00;;;;;;;10.46;86.65;101528.90;107529;1250;100529;-63
2024/04/07 02:33:19;;;;;;;17.00;12.30;;;;;;;10.44;86.89;101536.27;107526;1250;100791;-63
2024/04/07 02:35:47;;;;;;;17.00;12.20;;;;;;;10.42;87.45;101544.13;107547;1251;114038;-62
2024/04/07 02:38:16;;;;;;;22.70;12.10;;;;;;;10.39;87.59;101537.02;107602;1251;108314;-63
2024/04/07 02:40:44;;;;;;;18.70;11.80;;;;;;;10.37;87.30;101543.41;107549;1252;109410;-62
2024/04/07 02:43:13;;;;;;;14.70;10.10;;;;;;;10.36;87.18;101540.59;107516;1251;100535;-62
2024/04/07 02:48:32;;;;;;;18.30;9.40;;;;;;;10.30;86.86;101540.49;107423;1253;114072;-62
2024/04/07 02:51:00;;;;;;;17.80;11.10;;;;;;;10.25;86.96;101548.92;107581;1256;107858;-62
2024/04/07 02:53:29;;;;;;;17.00;9.00;;;;;;;10.23;87.44;101555.36;107618;1254;107962;-62
2024/04/07 02:55:57;;;;;;;13.50;8.60;;;;;;;10.24;87.25;101551.86;107602;1253;100528;-62
2024/04/07 02:58:25;;;;;;;14.10;8.50;;;;;;;10.25;87.32;101557.38;107501;1254;100299;-63
2024/04/07 03:00:53;;;;;;;14.30;9.50;;;;;;;10.25;87.04;101555.73;107509;1254;114609;-62
2024/04/07 03:03:21;;;;;;;15.90;9.30;;;;;;;10.26;87.08;101551.06;107561;1250;108102;-62
2024/04/07 03:05:49;;;;;;;18.70;9.30;;;;;;;10.24;86.68;101550.61;107537;1250;108919;-63
2024/04/07 03:08:18;;;;;;;14.50;8.20;;;;;;;10.25;86.98;101554.85;107589;1253;100545;-61
2024/04/07 03:10:58;;;;;;;15.80;8.80;;;;;;;10.26;87.09;101557.09;107621;1254;100494;-62
2024/04/07 03:13:27;;;;;;;21.00;9.50;;;;;;;10.27;86.99;101559.02;107525;1252;113192;-65
2024/04/07 03:15:55;;;;;;;13.30;8.60;;;;;;;10.27;87.17;101562.77;107417;1258;107521;-63
2024/04/07 03:18:24;;;;;;;20.90;9.00;;;;;;;10.25;86.73;101564.88;107556;1251;108151;-61
2024/04/07 03:20:52;;;;;;;19.20;8.80;;;;;;;10.23;86.80;101570.77;107568;1251;100593;-62
2024/04/07 03:23:20;;;;;;;13.60;7.40;;;;;;;10.18;86.62;101582.83;107574;1254;100444;-62
2024/04/07 03:25:48;;;;;;;13.70;7.80;;;;;;;10.13;86.81;101583.33;107565;1251;114657;-64
2024/04/07 03:28:16;;;;;;;15.10;9.00;;;;;;;10.10;86.54;101582.66;107576;1251;108632;-62
2024/04/07 03:30:44;;;;;;;13.90;8.00;;;;;;;10.08;86.40;101585.14;107568;1251;107872;-65
2024/04/07 03:33:13;;;;;;;13.80;8.50;;;;;;;10.06;86.26;101590.16;107555;1251;100515;-62
2024/04/07 03:35:41;;;;;;;19.10;8.80;;;;;;;10.03;86.23;101591.95;107563;1251;100439;-62
2024/04/07 03:38:11;;;;;;;19.70;8.70;;;;;;;10.01;86.14;101598.74;107600;1251;113803;-62
2024/04/07 03:40:40;;;;;;;17.50;8.10;;;;;;;9.99;85.92;101602.31;107598;1251;108714;-62
2024/04/07 03:43:08;;;;;;;14.90;7.80;;;;;;;9.96;86.22;101606.24;107526;1256;108163;-63
2024/04/07 03:45:36;;;;;;;13.20;8.30;;;;;;;9.94;85.96;101611.93;107644;1251;101191;-64
2024/04/07 03:48:05;;;;;;;16.10;8.80;;;;;;;9.92;85.92;101612.69;107655;1251;100532;-62
2024/04/07 03:50:33;;;;;;;12.90;7.40;;;;;;;9.86;85.66;101616.64;107589;1251;113384;-63
2024/04/07 03:53:02;;;;;;;15.00;8.10;;;;;;;9.82;85.81;101622.83;107620;1249;108593;-62
2024/04/07 03:55:30;;;;;;;17.90;7.80;;;;;;;9.80;86.66;101621.79;107546;1251;108638;-62
2024/04/07 03:57:59;;;;;;;12.20;7.40;;;;;;;9.77;86.87;101625.36;107505;1251;100606;-61
2024/04/07 04:00:27;;;;;;;14.70;7.90;;;;;;;9.77;86.81;101628.83;107554;1250;100407;-64
2024/04/07 04:02:56;;;;;;;11.90;7.60;;;;;;;9.77;86.74;101627.90;107545;1250;114197;-64
2024/04/07 04:05:25;;;;;;;15.10;8.00;;;;;;;9.77;86.99;101626.77;107492;1251;108526;-62
2024/04/07 04:07:53;;;;;;;20.70;8.20;;;;;;;9.77;86.91;101624.32;107543;1251;107070;-63
2024/04/07 04:10:22;;;;;;;15.70;8.30;;;;;;;9.75;86.91;101619.42;107531;1251;100971;-63
2024/04/07 04:12:50;;;;;;;15.60;9.00;;;;;;;9.75;86.82;101625.49;107554;1251;100497;-63
2024/04/07 04:15:18;;;;;;;19.00;10.00;;;;;;;9.75;87.27;101626.07;107555;1251;113966;-63
2024/04/07 04:17:47;;;;;;;10.00;7.90;;;;;;;9.72;86.96;101629.51;107557;1251;108035;-64
2024/04/07 04:20:15;;;;;;;20.20;9.50;;;;;;;9.69;86.57;101631.45;107528;1250;107338;-63
2024/04/07 04:22:43;;;;;;;18.10;8.10;;;;;;;9.67;86.39;101641.33;107535;1251;100978;-64
2024/04/07 04:25:12;;;;;;;12.30;7.50;;;;;;;9.64;86.71;101649.06;107562;1250;101179;-62
2024/04/07 04:27:40;;;;;;;17.20;7.40;;;;;;;9.62;86.54;101650.10;107616;1251;113801;-63
2024/04/07 04:30:08;;;;;;;16.20;8.20;;;;;;;9.60;86.29;101654.16;107575;1250;108505;-64
2024/04/07 04:32:37;;;;;;;8.50;6.70;;;;;;;9.61;86.38;101656.97;107526;1251;108694;-63
2024/04/07 04:35:05;;;;;;;13.50;7.80;;;;;;;9.61;86.15;101654.98;107561;1251;100525;-63
2024/04/07 04:37:33;;;;;;;15.00;8.00;;;;;;;9.64;87.23;101662.63;107553;1251;100408;-62
2024/04/07 04:40:05;;;;;;;9.50;7.20;;;;;;;9.70;87.18;101660.61;107485;1251;114099;-62
2024/04/07 04:42:40;;;;;;;14.30;8.10;;;;;;;9.80;87.57;101666.74;107562;1250;106698;-63
2024/04/07 04:45:08;;;;;;;15.30;8.00;;;;;;;9.89;87.72;101672.89;107567;1251;107718;-64
2024/04/07 04:47:36;;;;;;;13.70;7.70;;;;;;;9.96;87.91;101677.56;107515;1253;100528;-65
2024/04/07 04:50:10;;;;;;;12.40;7.10;;;;;;;10.02;87.75;101680.21;107611;1256;100446;-63
2024/04/07 04:52:38;;;;;;;15.20;8.00;;;;;;;10.05;87.50;101684.30;107558;1253;113832;-62
2024/04/07 04:55:07;;;;;;;12.10;6.50;;;;;;;10.09;87.86;101685.27;107628;1254;107899;-63
2024/04/07 04:57:35;;;;;;;15.40;6.80;;;;;;;10.11;87.81;101680.27;107579;1253;108048;-62
2024/04/07 05:00:05;;;;;;;14.70;7.30;;;;;;;10.16;87.54;101681.34;107561;1251;100629;-62
2024/04/07 05:02:33;;;;;;;15.00;6.70;;;;;;;10.23;87.47;101684.98;107584;1251;101060;-63
2024/04/07 05:05:03;;;;;;;16.30;6.50;;;;;;;10.27;87.17;101686.48;107500;1251;115109;-62
2024/04/07 05:07:31;;;;;;;13.40;6.70;;;;;;;10.30;87.03;101688.40;107519;1250;108560;-62
2024/04/07 05:09:59;;;;;;;15.10;6.40;;;;;;;10.33;86.78;101692.83;107497;1251;107629;-63
2024/04/07 05:12:27;;;;;;;10.50;6.00;;;;;;;10.36;86.67;101699.30;107507;1253;100550;-63
2024/04/07 05:14:55;;;;;;;9.80;5.90;;;;;;;10.37;86.32;101703.36;107581;1254;100641;-63
2024/04/07 05:17:23;;;;;;;16.20;6.40;;;;;;;10.41;86.18;101705.42;107614;1254;114057;-63
2024/04/07 05:19:51;;;;;;;9.50;5.90;;;;;;;10.45;86.04;101712.16;107494;1251;107811;-63
2024/04/07 05:22:19;;;;;;;9.90;6.20;;;;;;;10.49;85.85;101713.95;107501;1251;108001;-62
2024/04/07 05:24:51;;;;;;;13.80;5.50;;;;;;;10.54;85.69;101714.17;107526;1251;100558;-63
2024/04/07 05:27:19;;;;;;;16.70;7.30;;;;;;;10.59;85.31;101717.35;107473;1254;101164;-62
2024/04/07 05:29:50;;;;;;;9.70;5.40;;;;;;;10.64;85.37;101717.34;107616;1254;113246;-62
2024/04/07 05:32:18;;;;;;;10.90;6.40;;;;;;;10.70;85.13;101713.21;107595;1254;108402;-63
2024/04/07 05:34:49;;;;;;;9.70;5.70;;;;;;;10.73;84.88;101714.73;107590;1253;107844;-63
2024/04/07 05:37:17;;;;;;;13.60;6.30;;;;;;;10.77;84.85;101720.36;107590;1251;100540;-64
2024/04/07 05:39:50;;;;;;;11.90;6.20;;;;;;;10.78;84.43;101722.28;107560;1250;101057;-63
2024/04/07 05:42:18;;;;;;;27.90;13.40;;;;;;;10.80;84.47;101727.11;107531;1254;114128;-63
2024/04/07 05:44:46;;;;;;;21.40;8.80;;;;;;;10.84;84.38;101729.90;107530;1250;109187;-63
2024/04/07 05:47:15;;;;;;;13.30;5.80;;;;;;;10.85;84.09;101730.89;107439;1251;108199;-63
2024/04/07 05:49:43;;;;;;;16.70;6.30;;;;;;;10.87;83.95;101737.59;107584;1253;100556;-63
2024/04/07 05:52:11;;;;;;;18.00;6.80;;;;;;;10.89;83.93;101740.09;107563;1254;100469;-63
2024/04/07 05:54:40;;;;;;;17.50;6.50;;;;;;;10.92;83.76;101737.94;107612;1253;114365;-63
2024/04/07 05:57:08;;;;;;;12.90;6.10;;;;;;;10.95;83.80;101739.14;107637;1251;108351;-63
2024/04/07 05:59:37;;;;;;;21.00;6.00;;;;;;;10.94;83.73;101740.41;107524;1251;107820;-63
2024/04/07 06:02:05;;;;;;;11.80;6.30;;;;;;;10.99;83.65;101740.61;107518;1251;101074;-64
2024/04/07 06:04:33;;;;;;;16.20;6.00;;;;;;;11.05;83.53;101742.30;107492;1251;100548;-63
2024/04/07 06:07:01;;;;;;;17.10;5.60;;;;;;;11.13;83.51;101745.16;107557;1254;114158;-64
2024/04/07 06:09:29;;;;;;;14.90;5.70;;;;;;;11.20;83.33;101749.84;107577;1254;108445;-65
2024/04/07 06:11:58;;;;;;;10.90;5.00;;;;;;;11.26;82.94;101754.08;107654;1253;108303;-63
2024/04/07 06:14:27;;;;;;;16.70;6.30;;;;;;;11.30;82.72;101743.52;107592;1254;100642;-63
2024/04/07 06:16:55;;;;;;;16.70;6.20;;;;;;;11.36;82.56;101743.05;107586;1254;100530;-66
2024/04/07 06:19:23;;;;;;;17.90;5.80;;;;;;;11.42;82.59;101743.86;107643;1253;113965;-63
2024/04/07 06:21:51;;;;;;;14.50;5.60;;;;;;;11.48;82.52;101740.04;107516;1251;106898;-64
2024/04/07 06:24:19;;;;;;;15.00;5.80;;;;;;;11.54;82.36;101740.43;107508;1251;107576;-64
2024/04/07 06:26:48;;;;;;;17.00;5.70;;;;;;;11.59;82.04;101740.95;107515;1253;100610;-63
2024/04/07 06:29:16;;;;;;;10.20;5.00;;;;;;;11.63;81.63;101747.27;107637;1254;100660;-65
2024/04/07 06:31:44;;;;;;;11.20;5.00;;;;;;;11.68;81.59;101751.23;107583;1253;114655;-63
2024/04/07 06:34:12;;;;;;;17.30;4.90;;;;;;;11.75;81.13;101760.88;107503;1251;108627;-64
2024/04/07 06:36:40;;;;;;;17.10;4.60;;;;;;;11.82;80.66;101759.64;107555;1251;107740;-63
2024/04/07 06:39:09;;;;;;;12.60;4.90;;;;;;;11.89;79.99;101759.83;107437;1251;100526;-63
2024/04/07 06:41:37;;;;;;;16.50;5.00;;;;;;;11.95;79.78;101752.92;107538;1254;100652;-64
2024/04/07 06:44:05;;;;;;;14.50;6.60;;;;;;;12.01;79.93;101757.31;107612;1252;113813;-65
2024/04/07 06:46:33;;;;;;;13.20;5.00;;;;;;;12.08;80.08;101760.52;107574;1254;107895;-63
2024/04/07 06:49:01;;;;;;;14.30;5.70;;;;;;;12.16;79.89;101757.74;107455;1254;107670;-63
2024/04/07 06:51:31;;;;;;;12.30;5.00;;;;;;;12.24;80.05;101756.02;107426;1254;100533;-64
2024/04/07 06:53:59;;;;;;;12.30;4.80;;;;;;;12.34;79.50;101760.11;107477;1253;101132;-63
2024/04/07 06:56:28;;;;;;;10.20;4.60;;;;;;;12.43;79.47;101764.94;107502;1254;114366;-63
2024/04/07 06:58:56;;;;;;;7.50;3.70;;;;;;;12.52;79.61;101769.47;107455;1255;108951;-64
2024/04/07 07:01:24;;;;;;;15.40;8.10;;;;;;;12.60;79.42;101772.20;107410;1256;108308;-63
2024/04/07 07:03:52;;;;;;;15.10;5.20;;;;;;;12.71;79.22;101767.77;107419;1253;100516;-63
2024/04/07 07:06:20;;;;;;;12.40;4.80;;;;;;;12.81;78.69;101770.19;107431;1251;101076;-63
2024/04/07 07:08:48;;;;;;;13.10;4.10;;;;;;;12.89;78.56;101769.73;107476;1250;114218;-63
2024/04/07 07:11:17;;;;;;;9.60;4.30;;;;;;;12.96;78.44;101773.98;107470;1250;108900;-64
2024/04/07 07:13:45;;;;;;;15.30;3.80;;;;;;;13.06;78.63;101775.89;107485;1250;108330;-64
2024/04/07 07:16:13;;;;;;;12.30;4.10;;;;;;;13.18;78.74;101773.97;107442;1253;100674;-64
2024/04/07 07:18:42;;;;;;;13.70;5.10;;;;;;;13.28;78.62;101772.39;107468;1254;101106;-64
2024/04/07 07:21:10;;;;;;;11.10;3.60;;;;;;;13.40;78.52;101778.81;107466;1253;114627;-64
2024/04/07 07:23:38;;;;;;;8.60;3.20;;;;;;;13.52;78.39;101782.65;107442;1254;108349;-64
2024/04/07 07:26:06;;;;;;;7.90;3.50;;;;;;;13.63;77.12;101787.33;107445;1253;107349;-65
2024/04/07 07:28:34;;;;;;;10.20;3.10;;;;;;;13.76;76.67;101787.51;107411;1254;100536;-64
2024/04/07 07:31:04;;;;;;;13.00;3.60;;;;;;;13.85;76.53;101789.26;107490;1253;100425;-62
2024/04/07 07:33:32;;;;;;;8.50;3.60;;;;;;;13.94;76.03;101800.00;107514;1252;114957;-64
2024/04/07 07:36:00;;;;;;;9.50;3.20;;;;;;;14.02;76.35;101797.34;107507;1254;108631;-64
2024/04/07 07:38:28;;;;;;;15.20;6.00;;;;;;;14.10;76.07;101803.29;107458;1253;108206;-63
2024/04/07 07:40:56;;;;;;;7.30;4.20;;;;;;;14.20;75.82;101800.31;107464;1254;100529;-64
2024/04/07 07:43:24;;;;;;;8.60;3.30;;;;;;;14.30;75.20;101803.27;107453;1254;100424;-63
2024/04/07 07:45:54;;;;;;;11.40;5.20;;;;;;;14.40;74.87;101802.31;107489;1255;114433;-63
2024/04/07 07:48:22;;;;;;;18.50;4.20;;;;;;;14.48;73.89;101803.30;107487;1256;107345;-63
2024/04/07 07:50:50;;;;;;;7.70;3.10;;;;;;;14.57;74.06;101805.37;107474;1252;106662;-64
2024/04/07 07:53:18;;;;;;;7.40;3.30;;;;;;;14.67;73.68;101808.23;107433;1252;100544;-64
2024/04/07 07:55:46;;;;;;;6.00;3.30;;;;;;;14.76;72.53;101803.30;107465;1254;101090;-63
2024/04/07 07:58:14;;;;;;;15.00;3.10;;;;;;;14.90;71.54;101803.73;106701;1253;1060052;-65
2024/04/07 08:00:43;;;;;;;9.60;4.00;;;;;;;15.06;71.29;101801.21;107504;1251;108668;-64
2024/04/07 08:03:11;;;;;;;8.60;4.10;;;;;;;15.18;71.07;101810.05;107471;1254;107618;-64
2024/04/07 08:05:41;;;;;;;10.50;3.00;;;;;;;15.28;70.84;101807.69;107497;1250;100641;-64
2024/04/07 08:08:09;;;;;;;9.00;3.10;;;;;;;15.37;70.97;101807.67;107375;1252;100564;-63
2024/04/07 08:10:38;;;;;;;9.40;3.30;;;;;;;15.51;70.57;101808.97;107482;1254;113117;-64
2024/04/07 08:13:05;;;;;;;10.60;3.70;;;;;;;15.63;70.98;101813.05;107468;1254;107852;-63
2024/04/07 08:15:35;;;;;;;10.90;3.70;;;;;;;15.78;70.53;101807.55;107508;1252;107081;-63
2024/04/07 08:18:04;;;;;;;8.00;2.80;;;;;;;15.90;69.79;101805.40;107346;1254;100564;-63
2024/04/07 08:20:32;;;;;;;10.30;3.20;;;;;;;16.01;69.68;101805.55;107540;1252;100542;-63
2024/04/07 08:23:00;;;;;;;9.90;3.10;;;;;;;16.15;69.66;101807.33;107422;1254;114132;-63
2024/04/07 08:25:28;;;;;;;12.00;3.50;;;;;;;16.33;69.46;101805.27;107476;1253;107775;-63
2024/04/07 08:27:56;;;;;;;7.30;2.60;;;;;;;16.51;68.97;101810.19;107465;1254;108472;-64
2024/04/07 08:30:24;;;;;;;7.00;2.90;;;;;;;16.67;68.19;101811.05;107433;1255;100613;-64
2024/04/07 08:32:53;;;;;;;9.40;3.20;;;;;;;16.82;67.71;101816.45;107508;1255;100443;-64
2024/04/07 08:35:22;;;;;;;11.10;3.30;;;;;;;16.99;66.15;101815.38;107464;1254;115454;-64
2024/04/07 08:37:50;;;;;;;9.00;4.20;;;;;;;17.13;66.13;101817.41;107510;1254;108793;-64
2024/04/07 08:40:18;;;;;;;8.00;3.30;;;;;;;17.27;64.31;101817.77;107426;1253;108382;-63
2024/04/07 08:42:48;;;;;;;9.90;3.10;;;;;;;17.42;64.23;101822.89;107444;1252;100654;-64
2024/04/07 08:45:21;;;;;;;12.20;2.50;;;;;;;17.55;64.86;101828.25;107452;1254;101057;-64
2024/04/07 08:47:50;;;;;;;7.60;3.00;;;;;;;17.75;64.20;101829.45;107467;1254;114414;-64
2024/04/07 08:50:19;;;;;;;8.60;3.50;;;;;;;17.95;62.63;101832.19;107496;1253;107707;-65
2024/04/07 08:52:47;;;;;;;12.70;3.40;;;;;;;18.09;61.81;101827.81;107426;1256;107875;-63
2024/04/07 08:55:16;;;;;;;10.50;2.60;;;;;;;18.26;61.65;101829.21;107429;1254;100556;-63
2024/04/07 08:57:44;;;;;;;7.20;2.50;;;;;;;18.45;59.81;101833.73;107538;1256;100447;-63
2024/04/07 09:00:15;;;;;;;25.80;3.40;;;;;;;18.57;59.21;101833.48;107470;1255;115184;-63
2024/04/07 09:02:45;;;;;;;7.90;3.00;;;;;;;18.73;59.48;101835.33;107532;1254;108043;-64
2024/04/07 09:05:13;;;;;;;6.70;2.40;;;;;;;18.92;60.11;101837.08;107493;1254;107767;-64
2024/04/07 09:07:41;;;;;;;9.60;2.80;;;;;;;19.16;59.35;101844.48;107505;1251;100542;-64
2024/04/07 09:10:09;;;;;;;4.30;2.40;;;;;;;19.41;57.96;101842.17;107483;1251;102230;-63
2024/04/07 09:12:38;;;;;;;9.00;2.70;;;;;;;19.63;57.15;101841.76;107447;1251;114479;-62
2024/04/07 09:15:09;;;;;;;7.60;2.50;;;;;;;19.90;56.63;101846.65;107439;1254;108199;-65
2024/04/07 09:17:38;;;;;;;13.70;2.50;;;;;;;20.13;55.63;101844.52;107492;1252;108240;-63
2024/04/07 09:20:19;;;;;;;11.40;5.10;;;;;;;20.43;55.69;101843.08;107438;1254;101299;-63
2024/04/07 09:22:48;;;;;;;13.50;3.30;;;;;;;20.80;54.38;101842.71;107488;1253;100422;-66
2024/04/07 09:25:17;;;;;;;17.70;2.80;;;;;;;21.17;52.01;101838.84;107476;1253;114800;-63
2024/04/07 09:27:45;;;;;;;8.50;3.00;;;;;;;21.56;51.06;101840.08;107449;1253;107776;-64
2024/04/07 09:30:13;;;;;;;7.60;2.40;;;;;;;21.98;49.33;101837.64;107436;1252;108265;-63
2024/04/07 09:32:42;;;;;;;7.20;2.90;;;;;;;22.16;48.79;101833.70;107431;1254;100623;-64
2024/04/07 09:35:10;;;;;;;4.90;2.40;;;;;;;22.80;48.21;101829.58;107536;1255;100539;-64
2024/04/07 09:37:39;;;;;;;7.50;2.30;;;;;;;23.47;46.42;101830.34;107483;1256;114364;-64
2024/04/07 09:40:08;;;;;;;5.80;2.70;;;;;;;23.68;45.67;101831.55;107458;1254;108266;-64
2024/04/07 09:42:38;;;;;;;7.10;1.70;;;;;;;24.34;44.30;101830.53;107492;1253;108216;-64
2024/04/07 09:45:11;;;;;;;6.30;1.70;;;;;;;24.99;42.79;101825.58;107516;1254;100520;-64
2024/04/07 09:47:44;;;;;;;8.20;2.20;;;;;;;25.70;42.67;101826.30;107518;1254;100595;-64
2024/04/07 09:50:31;;;;;;;6.60;2.30;;;;;;;26.17;40.94;101826.16;107513;1256;114498;-64
2024/04/07 09:53:27;;;;;;;5.20;2.10;;;;;;;26.07;40.50;101833.77;107522;1256;107969;-64
2024/04/07 09:55:58;;;;;;;7.40;2.00;;;;;;;25.56;39.67;101835.61;107464;1254;107789;-64
2024/04/07 09:58:27;;;;;;;6.00;2.10;;;;;;;25.59;40.47;101829.41;107565;1252;101341;-64
2024/04/07 10:00:56;;;;;;;4.90;1.70;;;;;;;26.40;40.48;101831.02;107615;1254;101077;-65
2024/04/07 10:03:24;;;;;;;5.50;2.10;;;;;;;26.56;38.52;101830.23;107471;1253;114153;-64
2024/04/07 10:05:53;;;;;;;6.20;1.50;;;;;;;25.98;37.98;101829.83;107493;1252;108021;-65
2024/04/07 10:08:21;;;;;;;7.50;1.90;;;;;;;26.01;38.12;101831.90;107446;1253;107598;-63
2024/04/07 10:10:50;;;;;;;6.10;1.80;;;;;;;26.30;37.33;101834.63;107462;1254;100514;-64
2024/04/07 10:13:33;;;;;;;6.50;1.70;;;;;;;27.01;36.49;101837.96;107424;1254;101170;-65
2024/04/07 10:16:02;;;;;;;10.20;1.60;;;;;;;27.77;35.45;101831.89;107477;1253;114007;-64
2024/04/07 10:18:30;;;;;;;8.20;1.80;;;;;;;28.44;33.36;101827.41;107566;1254;108776;-64
2024/04/07 10:21:00;;;;;;;8.10;2.20;;;;;;;28.96;30.98;101827.38;107568;1252;108095;-64
2024/04/07 10:23:28;;;;;;;4.90;1.60;;;;;;;29.31;30.34;101828.05;107549;1253;100526;-64
2024/04/07 10:26:03;;;;;;;8.00;1.60;;;;;;;29.51;30.42;101827.41;107557;1253;100510;-63
2024/04/07 10:28:44;;;;;;;10.30;1.80;;;;;;;28.60;31.14;101828.20;107569;1254;113557;-64
2024/04/07 10:31:15;;;;;;;8.40;2.00;;;;;;;27.37;32.76;101834.08;107573;1253;109218;-63
2024/04/07 10:33:48;;;;;;;4.90;1.80;;;;;;;26.55;33.37;101836.51;107541;1256;107109;-64
2024/04/07 10:36:20;;;;;;;3.80;1.50;;;;;;;26.77;32.44;101829.95;107654;1250;100529;-64
2024/04/07 10:38:59;;;;;;;5.40;1.90;;;;;;;27.56;31.85;101827.16;107610;1251;101302;-64
2024/04/07 10:41:31;;;;;;;7.20;1.30;;;;;;;28.33;32.30;101825.30;107543;1255;114968;-64
2024/04/07 10:44:01;;;;;;;2.80;1.40;;;;;;;28.41;31.75;101827.34;107620;1251;107312;-64
2024/04/07 10:46:31;;;;;;;7.60;1.60;;;;;;;27.85;29.93;101827.91;107558;1251;108666;-63
2024/04/07 10:49:00;;;;;;;3.50;1.40;;;;;;;26.99;30.20;101830.60;107621;1251;100523;-64
2024/04/07 10:51:29;;;;;;;3.70;1.00;;;;;;;26.42;31.61;101832.35;107574;1251;101164;-63
2024/04/07 10:54:00;;;;;;;3.10;1.10;;;;;;;26.59;31.93;101833.91;107559;1251;114325;-63
2024/04/07 10:56:30;;;;;;;7.10;1.30;;;;;;;26.33;31.19;101836.14;107629;1254;107324;-63
2024/04/07 10:59:00;;;;;;;5.30;1.00;;;;;;;26.01;31.36;101833.81;107549;1255;108295;-63
2024/04/07 11:01:30;;;;;;;4.50;1.10;;;;;;;26.36;30.77;101835.14;107612;1254;101173;-63
2024/04/07 11:03:58;;;;;;;3.70;0.90;;;;;;;27.34;30.92;101836.11;107614;1253;100525;-64
2024/04/07 11:06:27;;;;;;;5.90;1.30;;;;;;;28.18;30.40;101834.02;107628;1251;114565;-64
2024/04/07 11:08:56;;;;;;;7.10;1.90;;;;;;;29.17;26.73;101828.28;107599;1254;107944;-64
2024/04/07 11:11:25;;;;;;;4.10;1.00;;;;;;;29.67;26.64;101828.30;107589;1251;108813;-64
2024/04/07 11:13:55;;;;;;;4.00;1.00;;;;;;;29.95;26.25;101832.19;107513;1254;100421;-64